sensor_id;sensor_type;location;lat;lon;timestamp;pressure;altitude;pressure_sealevel;temperature;humidity
58072;BME280;60383;46.626;18.866;2022-08-23T00:01:08;99945.44;;;18.13;89.72
58072;BME280;60383;46.626;18.866;2022-08-23T00:03:34;99954.81;;;18.19;89.72
58072;BME280;60383;46.626;18.866;2022-08-23T00:06:00;99955.06;;;18.11;89.67
58072;BME280;60383;46.626;18.866;2022-08-23T00:08:26;99951.63;;;18.09;90.07
58072;BME280;60383;46.626;18.866;2022-08-23T00:10:51;99956.78;;;18.05;90.42
58072;BME280;60383;46.626;18.866;2022-08-23T00:13:17;99956.78;;;18.05;90.13
58072;BME280;60383;46.626;18.866;2022-08-23T00:15:42;99955.50;;;18.01;90.43
58072;BME280;60383;46.626;18.866;2022-08-23T00:18:08;99955.47;;;18.08;90.36
58072;BME280;60383;46.626;18.866;2022-08-23T00:20:33;99957.81;;;18.11;90.00
58072;BME280;60383;46.626;18.866;2022-08-23T00:22:59;99958.03;;;18.09;90.02
58072;BME280;60383;46.626;18.866;2022-08-23T00:25:24;99953.31;;;18.16;89.83
58072;BME280;60383;46.626;18.866;2022-08-23T00:27:49;99956.94;;;18.17;90.16
58072;BME280;60383;46.626;18.866;2022-08-23T00:30:15;99952.69;;;18.14;90.05
58072;BME280;60383;46.626;18.866;2022-08-23T00:32:41;99954.00;;;18.12;90.27
58072;BME280;60383;46.626;18.866;2022-08-23T00:35:09;99956.31;;;18.15;90.37
58072;BME280;60383;46.626;18.866;2022-08-23T00:37:35;99954.41;;;18.02;90.37
58072;BME280;60383;46.626;18.866;2022-08-23T00:40:04;99962.94;;;18.07;90.20
58072;BME280;60383;46.626;18.866;2022-08-23T00:43:02;99959.97;;;18.02;90.57
58072;BME280;60383;46.626;18.866;2022-08-23T00:49:06;99952.72;;;18.08;90.66
58072;BME280;60383;46.626;18.866;2022-08-23T00:51:36;99945.91;;;18.03;90.67
58072;BME280;60383;46.626;18.866;2022-08-23T00:54:07;99954.19;;;18.10;90.78
58072;BME280;60383;46.626;18.866;2022-08-23T00:56:34;99941.84;;;18.06;91.26
58072;BME280;60383;46.626;18.866;2022-08-23T00:59:00;99948.88;;;18.02;91.26
58072;BME280;60383;46.626;18.866;2022-08-23T01:01:26;99954.41;;;18.15;91.47
58072;BME280;60383;46.626;18.866;2022-08-23T01:03:55;99946.75;;;18.11;90.74
58072;BME280;60383;46.626;18.866;2022-08-23T01:08:54;99951.19;;;18.18;90.89
58072;BME280;60383;46.626;18.866;2022-08-23T01:11:26;99949.94;;;18.14;90.64
58072;BME280;60383;46.626;18.866;2022-08-23T01:13:59;99946.75;;;18.11;90.60
58072;BME280;60383;46.626;18.866;2022-08-23T01:16:42;99950.56;;;18.10;90.21
58072;BME280;60383;46.626;18.866;2022-08-23T01:19:18;99956.16;;;17.96;90.63
58072;BME280;60383;46.626;18.866;2022-08-23T01:21:54;99954.00;;;18.05;90.37
58072;BME280;60383;46.626;18.866;2022-08-23T01:24:22;99955.94;;;17.91;90.88
58072;BME280;60383;46.626;18.866;2022-08-23T01:26:48;99957.47;;;17.80;91.59
58072;BME280;60383;46.626;18.866;2022-08-23T01:29:13;99964.25;;;17.98;91.19
58072;BME280;60383;46.626;18.866;2022-08-23T01:31:41;99960.41;;;17.99;91.16
58072;BME280;60383;46.626;18.866;2022-08-23T01:34:09;99969.13;;;18.02;91.23
58072;BME280;60383;46.626;18.866;2022-08-23T01:36:35;99965.72;;;18.07;91.00
58072;BME280;60383;46.626;18.866;2022-08-23T01:39:03;99970.84;;;18.03;90.80
58072;BME280;60383;46.626;18.866;2022-08-23T01:41:29;99968.91;;;18.04;90.54
58072;BME280;60383;46.626;18.866;2022-08-23T01:43:55;99971.91;;;18.02;91.22
58072;BME280;60383;46.626;18.866;2022-08-23T01:46:22;99979.34;;;18.02;91.34
58072;BME280;60383;46.626;18.866;2022-08-23T01:48:49;99978.75;;;18.00;91.81
58072;BME280;60383;46.626;18.866;2022-08-23T01:51:17;99976.19;;;17.98;91.68
58072;BME280;60383;46.626;18.866;2022-08-23T01:53:43;99983.19;;;17.94;91.86
58072;BME280;60383;46.626;18.866;2022-08-23T01:56:10;99983.22;;;18.01;91.79
58072;BME280;60383;46.626;18.866;2022-08-23T01:58:36;99986.81;;;18.01;91.76
58072;BME280;60383;46.626;18.866;2022-08-23T02:01:02;99985.13;;;18.00;91.87
58072;BME280;60383;46.626;18.866;2022-08-23T02:03:29;99985.53;;;18.04;91.57
58072;BME280;60383;46.626;18.866;2022-08-23T02:05:56;99981.69;;;18.05;91.32
58072;BME280;60383;46.626;18.866;2022-08-23T02:08:22;99999.41;;;17.97;91.83
58072;BME280;60383;46.626;18.866;2022-08-23T02:11:08;100009.41;;;17.92;92.36
58072;BME280;60383;46.626;18.866;2022-08-23T02:13:34;99998.78;;;17.95;92.26
58072;BME280;60383;46.626;18.866;2022-08-23T02:16:08;100009.19;;;18.07;92.10
58072;BME280;60383;46.626;18.866;2022-08-23T02:18:35;100006.00;;;18.10;91.83
58072;BME280;60383;46.626;18.866;2022-08-23T02:21:02;100012.81;;;18.00;92.43
58072;BME280;60383;46.626;18.866;2022-08-23T02:23:27;100018.13;;;18.09;92.15
58072;BME280;60383;46.626;18.866;2022-08-23T02:25:53;100015.38;;;18.09;91.95
58072;BME280;60383;46.626;18.866;2022-08-23T02:28:20;100016.00;;;18.04;92.19
58072;BME280;60383;46.626;18.866;2022-08-23T02:30:46;100018.78;;;18.04;92.23
58072;BME280;60383;46.626;18.866;2022-08-23T02:33:12;100022.84;;;18.01;92.33
58072;BME280;60383;46.626;18.866;2022-08-23T02:35:39;100018.78;;;18.04;92.23
58072;BME280;60383;46.626;18.866;2022-08-23T02:38:07;100024.09;;;18.06;92.10
58072;BME280;60383;46.626;18.866;2022-08-23T02:40:33;100017.72;;;18.05;92.39
58072;BME280;60383;46.626;18.866;2022-08-23T02:42:59;100017.53;;;18.00;92.42
58072;BME280;60383;46.626;18.866;2022-08-23T02:45:26;100011.75;;;18.08;91.44
58072;BME280;60383;46.626;18.866;2022-08-23T02:47:52;100013.66;;;17.94;92.28
58072;BME280;60383;46.626;18.866;2022-08-23T02:50:17;100010.94;;;18.01;92.37
58072;BME280;60383;46.626;18.866;2022-08-23T02:52:43;100005.81;;;17.98;92.82
58072;BME280;60383;46.626;18.866;2022-08-23T02:55:08;100016.22;;;17.82;93.37
58072;BME280;60383;46.626;18.866;2022-08-23T02:57:34;100017.34;;;17.95;93.12
58072;BME280;60383;46.626;18.866;2022-08-23T02:59:59;100012.00;;;18.00;93.37
58072;BME280;60383;46.626;18.866;2022-08-23T03:02:25;100025.84;;;18.00;93.12
58072;BME280;60383;46.626;18.866;2022-08-23T03:04:50;100025.19;;;17.98;93.21
58072;BME280;60383;46.626;18.866;2022-08-23T03:07:16;100021.38;;;17.99;93.30
58072;BME280;60383;46.626;18.866;2022-08-23T03:09:42;100030.31;;;18.01;92.80
58072;BME280;60383;46.626;18.866;2022-08-23T03:12:07;100041.41;;;18.01;92.79
58072;BME280;60383;46.626;18.866;2022-08-23T03:14:35;100039.88;;;18.05;92.23
58072;BME280;60383;46.626;18.866;2022-08-23T03:17:02;100042.66;;;18.05;92.20
58072;BME280;60383;46.626;18.866;2022-08-23T03:19:28;100055.88;;;18.03;92.20
58072;BME280;60383;46.626;18.866;2022-08-23T03:21:54;100049.25;;;18.04;92.23
58072;BME280;60383;46.626;18.866;2022-08-23T03:24:19;100049.03;;;18.06;92.26
58072;BME280;60383;46.626;18.866;2022-08-23T03:26:45;100050.75;;;18.13;91.96
58072;BME280;60383;46.626;18.866;2022-08-23T03:29:11;100047.53;;;18.16;91.95
58072;BME280;60383;46.626;18.866;2022-08-23T03:31:37;100066.91;;;18.16;91.32
58072;BME280;60383;46.626;18.866;2022-08-23T03:34:03;100064.16;;;18.16;91.11
58072;BME280;60383;46.626;18.866;2022-08-23T03:36:29;100058.19;;;18.19;90.70
58072;BME280;60383;46.626;18.866;2022-08-23T03:38:55;100062.47;;;18.09;91.18
58072;BME280;60383;46.626;18.866;2022-08-23T03:41:21;100065.88;;;18.11;91.62
58072;BME280;60383;46.626;18.866;2022-08-23T03:43:47;100068.66;;;18.11;92.34
58072;BME280;60383;46.626;18.866;2022-08-23T03:46:12;100063.72;;;18.13;92.09
58072;BME280;60383;46.626;18.866;2022-08-23T03:48:49;100063.31;;;18.16;92.24
58072;BME280;60383;46.626;18.866;2022-08-23T03:51:15;100064.16;;;18.16;92.13
58072;BME280;60383;46.626;18.866;2022-08-23T03:53:41;100070.34;;;18.18;92.02
58072;BME280;60383;46.626;18.866;2022-08-23T03:56:06;100063.72;;;18.19;91.87
58072;BME280;60383;46.626;18.866;2022-08-23T03:58:32;100071.22;;;18.19;91.96
58072;BME280;60383;46.626;18.866;2022-08-23T04:00:57;100072.03;;;18.19;91.53
58072;BME280;60383;46.626;18.866;2022-08-23T04:03:22;100071.63;;;18.16;91.45
58072;BME280;60383;46.626;18.866;2022-08-23T04:05:48;100076.09;;;18.10;91.75
58072;BME280;60383;46.626;18.866;2022-08-23T04:08:13;100074.63;;;18.14;91.75
58072;BME280;60383;46.626;18.866;2022-08-23T04:10:39;100071.00;;;18.07;91.78
58072;BME280;60383;46.626;18.866;2022-08-23T04:13:06;100074.81;;;18.13;91.76
58072;BME280;60383;46.626;18.866;2022-08-23T04:15:33;100077.13;;;18.23;91.21
58072;BME280;60383;46.626;18.866;2022-08-23T04:17:59;100063.91;;;18.31;90.58
58072;BME280;60383;46.626;18.866;2022-08-23T04:20:25;100068.81;;;18.36;90.41
58072;BME280;60383;46.626;18.866;2022-08-23T04:22:52;100060.50;;;18.36;89.68
58072;BME280;60383;46.626;18.866;2022-08-23T04:25:18;100053.88;;;18.37;90.15
58072;BME280;60383;46.626;18.866;2022-08-23T04:27:44;100056.84;;;18.42;90.34
58072;BME280;60383;46.626;18.866;2022-08-23T04:30:10;100058.75;;;18.42;89.77
58072;BME280;60383;46.626;18.866;2022-08-23T04:32:36;100064.31;;;18.42;88.99
58072;BME280;60383;46.626;18.866;2022-08-23T04:35:01;100067.75;;;18.24;89.98
58072;BME280;60383;46.626;18.866;2022-08-23T04:37:26;100076.47;;;18.41;89.12
58072;BME280;60383;46.626;18.866;2022-08-23T04:39:52;100075.63;;;18.33;89.84
58072;BME280;60383;46.626;18.866;2022-08-23T04:42:47;100076.31;;;18.29;90.38
58072;BME280;60383;46.626;18.866;2022-08-23T04:45:13;100073.31;;;18.24;90.63
58072;BME280;60383;46.626;18.866;2022-08-23T04:47:38;100086.75;;;18.27;91.03
58072;BME280;60383;46.626;18.866;2022-08-23T04:50:06;100086.50;;;18.28;90.16
58072;BME280;60383;46.626;18.866;2022-08-23T04:52:32;100090.34;;;18.27;90.09
58072;BME280;60383;46.626;18.866;2022-08-23T04:54:58;100086.31;;;18.23;90.70
58072;BME280;60383;46.626;18.866;2022-08-23T04:57:23;100082.50;;;18.17;91.45
58072;BME280;60383;46.626;18.866;2022-08-23T04:59:49;100083.34;;;18.18;91.28
58072;BME280;60383;46.626;18.866;2022-08-23T05:02:15;100090.19;;;18.15;91.71
58072;BME280;60383;46.626;18.866;2022-08-23T05:04:41;100096.56;;;18.16;92.17
58072;BME280;60383;46.626;18.866;2022-08-23T05:07:06;100108.72;;;18.22;91.88
58072;BME280;60383;46.626;18.866;2022-08-23T05:09:32;100110.81;;;18.26;91.25
58072;BME280;60383;46.626;18.866;2022-08-23T05:11:57;100116.16;;;18.28;91.51
58072;BME280;60383;46.626;18.866;2022-08-23T05:14:23;100118.50;;;18.31;90.96
58072;BME280;60383;46.626;18.866;2022-08-23T05:16:48;100112.09;;;18.30;90.69
58072;BME280;60383;46.626;18.866;2022-08-23T05:19:14;100119.13;;;18.26;90.68
58072;BME280;60383;46.626;18.866;2022-08-23T05:21:39;100111.69;;;18.27;90.79
58072;BME280;60383;46.626;18.866;2022-08-23T05:24:04;100113.41;;;18.28;91.11
58072;BME280;60383;46.626;18.866;2022-08-23T05:26:30;100121.69;;;18.34;90.94
58072;BME280;60383;46.626;18.866;2022-08-23T05:28:55;100120.84;;;18.34;90.77
58072;BME280;60383;46.626;18.866;2022-08-23T05:31:25;100121.25;;;18.38;90.50
58072;BME280;60383;46.626;18.866;2022-08-23T05:33:52;100117.19;;;18.40;90.23
58072;BME280;60383;46.626;18.866;2022-08-23T05:36:18;100126.78;;;18.44;89.78
58072;BME280;60383;46.626;18.866;2022-08-23T05:38:45;100131.25;;;18.45;89.66
58072;BME280;60383;46.626;18.866;2022-08-23T05:41:14;100137.88;;;18.51;89.54
58072;BME280;60383;46.626;18.866;2022-08-23T05:43:41;100138.94;;;18.57;89.35
58072;BME280;60383;46.626;18.866;2022-08-23T05:46:09;100140.41;;;18.59;88.70
58072;BME280;60383;46.626;18.866;2022-08-23T05:48:35;100143.59;;;18.63;88.90
58072;BME280;60383;46.626;18.866;2022-08-23T05:51:28;100142.09;;;18.67;88.68
58072;BME280;60383;46.626;18.866;2022-08-23T05:53:57;100152.78;;;18.57;88.92
58072;BME280;60383;46.626;18.866;2022-08-23T05:56:32;100158.09;;;18.65;89.10
58072;BME280;60383;46.626;18.866;2022-08-23T05:59:00;100159.38;;;18.69;89.31
58072;BME280;60383;46.626;18.866;2022-08-23T06:01:28;100154.66;;;18.76;89.32
58072;BME280;60383;46.626;18.866;2022-08-23T06:03:54;100157.63;;;18.81;87.85
58072;BME280;60383;46.626;18.866;2022-08-23T06:06:20;100153.13;;;18.80;87.56
58072;BME280;60383;46.626;18.866;2022-08-23T06:08:47;100155.69;;;18.82;87.76
58072;BME280;60383;46.626;18.866;2022-08-23T06:11:15;100160.63;;;18.73;87.91
58072;BME280;60383;46.626;18.866;2022-08-23T06:13:45;100154.66;;;18.76;88.04
58072;BME280;60383;46.626;18.866;2022-08-23T06:16:13;100160.16;;;18.83;88.02
58072;BME280;60383;46.626;18.866;2022-08-23T06:18:39;100169.34;;;18.83;87.93
58072;BME280;60383;46.626;18.866;2022-08-23T06:21:07;100167.84;;;18.88;87.72
58072;BME280;60383;46.626;18.866;2022-08-23T06:23:34;100169.78;;;18.94;87.42
58072;BME280;60383;46.626;18.866;2022-08-23T06:26:00;100175.31;;;18.94;86.37
58072;BME280;60383;46.626;18.866;2022-08-23T06:28:28;100179.16;;;18.99;86.65
58072;BME280;60383;46.626;18.866;2022-08-23T06:30:55;100177.03;;;18.95;87.53
58072;BME280;60383;46.626;18.866;2022-08-23T06:33:22;100178.13;;;18.74;87.34
58072;BME280;60383;46.626;18.866;2022-08-23T06:35:48;100174.22;;;18.88;87.33
58072;BME280;60383;46.626;18.866;2022-08-23T06:38:15;100169.56;;;18.89;87.18
58072;BME280;60383;46.626;18.866;2022-08-23T06:40:41;100171.50;;;18.81;86.68
58072;BME280;60383;46.626;18.866;2022-08-23T06:43:07;100174.25;;;18.81;87.99
58072;BME280;60383;46.626;18.866;2022-08-23T06:45:33;100173.59;;;18.93;88.86
58072;BME280;60383;46.626;18.866;2022-08-23T06:47:59;100178.91;;;19.08;87.42
58072;BME280;60383;46.626;18.866;2022-08-23T06:50:24;100177.13;;;19.20;85.85
58072;BME280;60383;46.626;18.866;2022-08-23T06:52:50;100182.47;;;19.22;84.88
58072;BME280;60383;46.626;18.866;2022-08-23T06:55:17;100182.88;;;19.19;84.99
58072;BME280;60383;46.626;18.866;2022-08-23T06:57:42;100181.16;;;19.31;85.82
58072;BME280;60383;46.626;18.866;2022-08-23T07:00:08;100188.59;;;19.37;85.57
58072;BME280;60383;46.626;18.866;2022-08-23T07:02:35;100181.50;;;19.41;85.03
58072;BME280;60383;46.626;18.866;2022-08-23T07:05:02;100198.31;;;19.53;84.66
58072;BME280;60383;46.626;18.866;2022-08-23T07:07:27;100191.22;;;19.64;83.66
58072;BME280;60383;46.626;18.866;2022-08-23T07:09:53;100197.31;;;19.79;83.37
58072;BME280;60383;46.626;18.866;2022-08-23T07:12:18;100187.44;;;20.16;81.56
58072;BME280;60383;46.626;18.866;2022-08-23T07:14:45;100188.56;;;20.08;82.75
58072;BME280;60383;46.626;18.866;2022-08-23T07:17:11;100203.50;;;20.14;82.61
58072;BME280;60383;46.626;18.866;2022-08-23T07:19:37;100204.63;;;20.06;81.89
58072;BME280;60383;46.626;18.866;2022-08-23T07:22:03;100201.34;;;20.16;80.76
58072;BME280;60383;46.626;18.866;2022-08-23T07:24:29;100196.22;;;19.80;80.92
58072;BME280;60383;46.626;18.866;2022-08-23T07:26:56;100205.41;;;19.81;82.40
58072;BME280;60383;46.626;18.866;2022-08-23T07:29:22;100206.69;;;19.85;82.44
58072;BME280;60383;46.626;18.866;2022-08-23T07:31:53;100214.13;;;19.91;82.61
58072;BME280;60383;46.626;18.866;2022-08-23T07:34:21;100208.06;;;20.01;81.95
58072;BME280;60383;46.626;18.866;2022-08-23T07:36:47;100219.25;;;19.94;82.97
58072;BME280;60383;46.626;18.866;2022-08-23T07:39:14;100219.91;;;19.90;82.27
58072;BME280;60383;46.626;18.866;2022-08-23T07:41:41;100215.75;;;20.06;82.34
58072;BME280;60383;46.626;18.866;2022-08-23T07:44:08;100208.44;;;20.11;80.02
58072;BME280;60383;46.626;18.866;2022-08-23T07:46:36;100212.81;;;20.26;79.74
58072;BME280;60383;46.626;18.866;2022-08-23T07:49:03;100221.38;;;20.24;79.57
58072;BME280;60383;46.626;18.866;2022-08-23T07:51:30;100222.00;;;20.26;79.58
58072;BME280;60383;46.626;18.866;2022-08-23T07:53:56;100226.09;;;20.24;79.89
58072;BME280;60383;46.626;18.866;2022-08-23T07:56:22;100230.34;;;20.26;81.19
58072;BME280;60383;46.626;18.866;2022-08-23T07:58:48;100227.13;;;20.30;81.75
58072;BME280;60383;46.626;18.866;2022-08-23T08:01:23;100235.69;;;20.28;80.66
58072;BME280;60383;46.626;18.866;2022-08-23T08:03:52;100237.56;;;20.02;80.16
58072;BME280;60383;46.626;18.866;2022-08-23T08:06:25;100234.50;;;19.78;82.01
58072;BME280;60383;46.626;18.866;2022-08-23T08:08:51;100231.72;;;20.17;80.19
58072;BME280;60383;46.626;18.866;2022-08-23T08:11:19;100237.94;;;20.13;80.90
58072;BME280;60383;46.626;18.866;2022-08-23T08:13:47;100238.47;;;20.28;80.88
58072;BME280;60383;46.626;18.866;2022-08-23T08:16:27;100245.19;;;20.64;77.67
58072;BME280;60383;46.626;18.866;2022-08-23T08:18:57;100245.00;;;20.66;78.15
58072;BME280;60383;46.626;18.866;2022-08-23T08:21:24;100241.72;;;20.76;77.78
58072;BME280;60383;46.626;18.866;2022-08-23T08:23:51;100251.22;;;20.61;78.53
58072;BME280;60383;46.626;18.866;2022-08-23T08:26:17;100246.97;;;20.33;76.98
58072;BME280;60383;46.626;18.866;2022-08-23T08:28:44;100248.50;;;20.54;77.13
58072;BME280;60383;46.626;18.866;2022-08-23T08:31:09;100249.13;;;20.82;76.18
58072;BME280;60383;46.626;18.866;2022-08-23T08:33:36;100251.88;;;21.07;75.51
58072;BME280;60383;46.626;18.866;2022-08-23T08:36:03;100250.06;;;21.13;75.09
58072;BME280;60383;46.626;18.866;2022-08-23T08:38:29;100251.63;;;21.27;75.99
58072;BME280;60383;46.626;18.866;2022-08-23T08:41:15;100254.84;;;20.87;74.78
58072;BME280;60383;46.626;18.866;2022-08-23T08:49:10;100255.00;;;21.66;72.31
58072;BME280;60383;46.626;18.866;2022-08-23T08:54:29;100268.88;;;21.54;70.86
58072;BME280;60383;46.626;18.866;2022-08-23T08:56:57;100264.13;;;21.55;70.84
58072;BME280;60383;46.626;18.866;2022-08-23T08:59:43;100269.41;;;20.89;71.49
58072;BME280;60383;46.626;18.866;2022-08-23T09:02:17;100280.22;;;20.97;73.25
58072;BME280;60383;46.626;18.866;2022-08-23T09:04:44;100273.59;;;21.35;71.83
58072;BME280;60383;46.626;18.866;2022-08-23T09:07:33;100276.28;;;21.42;71.85
58072;BME280;60383;46.626;18.866;2022-08-23T09:10:30;100274.28;;;20.43;72.05
58072;BME280;60383;46.626;18.866;2022-08-23T09:18:33;100277.50;;;20.65;71.76
58072;BME280;60383;46.626;18.866;2022-08-23T09:21:00;100288.00;;;20.88;71.80
58072;BME280;60383;46.626;18.866;2022-08-23T09:23:31;100284.31;;;20.95;70.42
58072;BME280;60383;46.626;18.866;2022-08-23T09:26:02;100276.00;;;21.32;69.94
58072;BME280;60383;46.626;18.866;2022-08-23T09:28:34;100279.50;;;21.64;69.60
58072;BME280;60383;46.626;18.866;2022-08-23T09:31:00;100287.09;;;21.88;68.83
58072;BME280;60383;46.626;18.866;2022-08-23T09:33:38;100283.56;;;21.80;68.44
58072;BME280;60383;46.626;18.866;2022-08-23T09:36:24;100283.31;;;21.82;70.58
58072;BME280;60383;46.626;18.866;2022-08-23T09:41:19;100293.75;;;21.49;70.52
58072;BME280;60383;46.626;18.866;2022-08-23T09:43:46;100293.31;;;21.52;70.45
58072;BME280;60383;46.626;18.866;2022-08-23T09:46:23;100295.88;;;21.35;73.06
58072;BME280;60383;46.626;18.866;2022-08-23T09:48:49;100290.94;;;21.37;73.35
58072;BME280;60383;46.626;18.866;2022-08-23T09:51:35;100290.66;;;21.76;70.93
58072;BME280;60383;46.626;18.866;2022-08-23T09:54:20;100291.38;;;21.53;70.50
58072;BME280;60383;46.626;18.866;2022-08-23T09:56:56;100280.25;;;21.72;70.63
58072;BME280;60383;46.626;18.866;2022-08-23T10:01:54;100283.72;;;21.11;72.52
58072;BME280;60383;46.626;18.866;2022-08-23T10:04:30;100284.03;;;21.21;72.47
58072;BME280;60383;46.626;18.866;2022-08-23T10:09:53;100274.38;;;21.92;68.92
58072;BME280;60383;46.626;18.866;2022-08-23T10:12:19;100285.91;;;21.95;68.78
58072;BME280;60383;46.626;18.866;2022-08-23T10:14:45;100284.75;;;22.03;68.56
58072;BME280;60383;46.626;18.866;2022-08-23T10:17:29;100277.97;;;22.11;67.48
58072;BME280;60383;46.626;18.866;2022-08-23T10:20:30;100276.94;;;22.36;68.60
58072;BME280;60383;46.626;18.866;2022-08-23T10:23:08;100271.78;;;22.98;65.22
58072;BME280;60383;46.626;18.866;2022-08-23T10:26:04;100270.31;;;23.32;64.19
58072;BME280;60383;46.626;18.866;2022-08-23T10:39:33;100263.03;;;24.12;57.32
58072;BME280;60383;46.626;18.866;2022-08-23T10:42:30;100270.53;;;24.12;58.96
58072;BME280;60383;46.626;18.866;2022-08-23T10:45:14;100268.38;;;24.48;58.15
58072;BME280;60383;46.626;18.866;2022-08-23T10:50:52;100260.66;;;24.89;54.82
58072;BME280;60383;46.626;18.866;2022-08-23T10:53:19;100259.34;;;25.14;55.63
58072;BME280;60383;46.626;18.866;2022-08-23T10:55:55;100256.06;;;25.39;54.80
58072;BME280;60383;46.626;18.866;2022-08-23T11:07:20;100258.44;;;25.08;55.74
58072;BME280;60383;46.626;18.866;2022-08-23T11:10:13;100251.00;;;24.46;55.43
58072;BME280;60383;46.626;18.866;2022-08-23T11:12:56;100252.63;;;24.42;55.63
58072;BME280;60383;46.626;18.866;2022-08-23T11:18:10;100255.16;;;24.43;55.87
58072;BME280;60383;46.626;18.866;2022-08-23T11:23:52;100248.06;;;24.69;55.88
58072;BME280;60383;46.626;18.866;2022-08-23T11:28:48;100248.81;;;24.82;55.48
58072;BME280;60383;46.626;18.866;2022-08-23T11:31:23;100250.00;;;24.69;54.38
58072;BME280;60383;46.626;18.866;2022-08-23T11:33:58;100248.63;;;25.28;52.91
58072;BME280;60383;46.626;18.866;2022-08-23T11:36:26;100250.03;;;25.08;53.21
58072;BME280;60383;46.626;18.866;2022-08-23T12:16:03;100245.81;;;26.97;51.93
58072;BME280;60383;46.626;18.866;2022-08-23T12:18:36;100241.94;;;27.03;52.21
58072;BME280;60383;46.626;18.866;2022-08-23T12:21:04;100240.94;;;26.77;51.64
58072;BME280;60383;46.626;18.866;2022-08-23T12:23:30;100243.34;;;26.68;51.81
58072;BME280;60383;46.626;18.866;2022-08-23T12:26:13;100237.66;;;26.53;50.94
58072;BME280;60383;46.626;18.866;2022-08-23T12:28:46;100248.19;;;26.40;51.78
58072;BME280;60383;46.626;18.866;2022-08-23T12:31:39;100234.91;;;26.30;51.59
58072;BME280;60383;46.626;18.866;2022-08-23T12:34:31;100244.22;;;26.36;50.56
58072;BME280;60383;46.626;18.866;2022-08-23T12:39:45;100247.53;;;26.01;52.37
58072;BME280;60383;46.626;18.866;2022-08-23T12:42:15;100244.91;;;25.94;50.79
58072;BME280;60383;46.626;18.866;2022-08-23T12:44:44;100240.31;;;25.82;52.20
58072;BME280;60383;46.626;18.866;2022-08-23T12:47:20;100241.44;;;25.81;53.67
58072;BME280;60383;46.626;18.866;2022-08-23T12:49:59;100242.47;;;25.75;53.89
58072;BME280;60383;46.626;18.866;2022-08-23T12:52:29;100245.88;;;25.77;53.54
58072;BME280;60383;46.626;18.866;2022-08-23T12:54:55;100245.38;;;26.08;53.05
58072;BME280;60383;46.626;18.866;2022-08-23T12:57:37;100251.00;;;26.08;53.97
58072;BME280;60383;46.626;18.866;2022-08-23T13:02:39;100245.78;;;25.94;53.16
58072;BME280;60383;46.626;18.866;2022-08-23T13:07:52;100248.28;;;25.68;53.46
58072;BME280;60383;46.626;18.866;2022-08-23T13:10:18;100243.22;;;25.65;53.66
58072;BME280;60383;46.626;18.866;2022-08-23T13:12:44;100239.94;;;25.51;54.38
58072;BME280;60383;46.626;18.866;2022-08-23T13:15:09;100241.66;;;25.52;54.13
58072;BME280;60383;46.626;18.866;2022-08-23T13:17:37;100240.28;;;25.55;54.10
58072;BME280;60383;46.626;18.866;2022-08-23T13:22:34;100235.94;;;25.42;54.59
58072;BME280;60383;46.626;18.866;2022-08-23T13:27:49;100255.25;;;25.22;54.71
58072;BME280;60383;46.626;18.866;2022-08-23T13:35:45;100248.47;;;25.17;55.20
58072;BME280;60383;46.626;18.866;2022-08-23T13:40:59;100248.25;;;25.41;54.93
58072;BME280;60383;46.626;18.866;2022-08-23T13:53:43;100250.19;;;25.63;56.06
58072;BME280;60383;46.626;18.866;2022-08-23T13:56:08;100243.34;;;25.54;56.45
58072;BME280;60383;46.626;18.866;2022-08-23T13:58:34;100245.06;;;25.55;56.64
58072;BME280;60383;46.626;18.866;2022-08-23T14:01:14;100242.19;;;25.49;56.70
58072;BME280;60383;46.626;18.866;2022-08-23T14:03:41;100244.59;;;25.41;56.00
58072;BME280;60383;46.626;18.866;2022-08-23T14:06:06;100241.69;;;25.35;55.35
58072;BME280;60383;46.626;18.866;2022-08-23T14:08:33;100246.34;;;25.47;56.42
58072;BME280;60383;46.626;18.866;2022-08-23T14:10:59;100242.09;;;25.44;56.72
58072;BME280;60383;46.626;18.866;2022-08-23T14:13:27;100233.84;;;25.55;55.41
58072;BME280;60383;46.626;18.866;2022-08-23T14:15:56;100237.81;;;25.59;55.42
58072;BME280;60383;46.626;18.866;2022-08-23T14:18:22;100233.44;;;25.68;54.78
58072;BME280;60383;46.626;18.866;2022-08-23T14:20:48;100235.44;;;25.73;55.58
58072;BME280;60383;46.626;18.866;2022-08-23T14:23:15;100228.56;;;25.86;55.76
58072;BME280;60383;46.626;18.866;2022-08-23T14:25:40;100237.38;;;25.94;55.50
58072;BME280;60383;46.626;18.866;2022-08-23T14:28:06;100228.69;;;25.96;55.06
58072;BME280;60383;46.626;18.866;2022-08-23T14:30:33;100230.31;;;25.92;55.31
58072;BME280;60383;46.626;18.866;2022-08-23T14:33:01;100227.78;;;25.90;55.00
58072;BME280;60383;46.626;18.866;2022-08-23T14:35:27;100226.16;;;25.94;55.17
58072;BME280;60383;46.626;18.866;2022-08-23T14:37:53;100233.09;;;25.92;55.06
58072;BME280;60383;46.626;18.866;2022-08-23T14:40:19;100226.66;;;25.64;55.71
58072;BME280;60383;46.626;18.866;2022-08-23T14:42:45;100226.34;;;25.60;55.70
58072;BME280;60383;46.626;18.866;2022-08-23T14:45:12;100223.28;;;25.62;55.79
58072;BME280;60383;46.626;18.866;2022-08-23T14:47:39;100224.06;;;25.57;56.86
58072;BME280;60383;46.626;18.866;2022-08-23T14:50:07;100223.22;;;25.57;57.58
58072;BME280;60383;46.626;18.866;2022-08-23T14:52:36;100229.16;;;25.60;57.45
58072;BME280;60383;46.626;18.866;2022-08-23T14:55:03;100227.38;;;25.54;57.02
58072;BME280;60383;46.626;18.866;2022-08-23T14:57:29;100225.75;;;25.58;57.01